Time;durP1;ratioP1;P1;durP2;ratioP2;P2;SDS_P1;SDS_P2;PMS_P1;PMS_P2;Temp;Humidity;BMP_temperature;BMP_pressure;BME280_temperature;BME280_humidity;BME280_pressure;Samples;Min_cycle;Max_cycle;Signal;HPM_P1;HPM_P2
2024/01/23 00:00:21;;;;;;;222.85;64.70;;;;;;;-7.75;67.67;96390.19;5058381;28;20064;-85
2024/01/23 00:02:47;;;;;;;197.15;64.03;;;;;;;-7.72;68.20;96397.66;5053343;28;20048;-85
2024/01/23 00:05:12;;;;;;;208.63;65.43;;;;;;;-8.54;68.26;96276.06;5027098;28;20064;-84
2024/01/23 00:07:38;;;;;;;194.32;64.43;;;;;;;-7.92;68.95;96377.00;5038578;28;20055;-85
2024/01/23 00:10:04;;;;;;;199.55;61.22;;;;;;;-7.82;68.59;96390.72;5026400;28;20036;-84
2024/01/23 00:12:30;;;;;;;184.00;59.40;;;;;;;-8.52;68.58;96284.44;5031653;28;20500;-85
2024/01/23 00:14:57;;;;;;;180.82;55.70;;;;;;;-8.07;68.77;96359.47;5046204;28;20083;-84
2024/01/23 00:17:22;;;;;;;153.88;50.47;;;;;;;-7.87;68.18;96398.03;5042371;28;20044;-84
2024/01/23 00:19:48;;;;;;;160.93;52.67;;;;;;;-8.52;68.11;96269.81;5055330;28;20132;-84
2024/01/23 00:22:13;;;;;;;149.63;49.15;;;;;;;-8.96;67.86;96196.44;5033967;28;20048;-84
2024/01/23 00:24:39;;;;;;;149.13;50.25;;;;;;;-8.83;67.96;96234.75;5021312;28;20043;-84
2024/01/23 00:27:04;;;;;;;155.52;48.13;;;;;;;-8.07;68.49;96372.34;5021484;28;20041;-84
2024/01/23 00:29:30;;;;;;;148.95;50.00;;;;;;;-8.45;68.11;96286.34;5038408;28;20124;-84
2024/01/23 00:31:56;;;;;;;136.85;48.83;;;;;;;-8.06;68.63;96366.25;5021070;28;20113;-84
2024/01/23 00:34:21;;;;;;;162.38;53.30;;;;;;;-8.14;69.06;96343.72;5040579;28;20048;-85
2024/01/23 00:36:47;;;;;;;156.18;50.10;;;;;;;-8.07;68.89;96352.56;5057724;28;20087;-84
2024/01/23 00:39:13;;;;;;;155.80;51.30;;;;;;;-8.15;69.36;96316.34;5057956;28;20039;-84
2024/01/23 00:41:39;;;;;;;150.85;50.80;;;;;;;-8.75;68.81;96229.78;5051115;28;20134;-84
2024/01/23 00:44:04;;;;;;;125.25;46.28;;;;;;;-8.16;69.05;96325.00;5010886;28;20485;-84
2024/01/23 00:46:30;;;;;;;160.30;52.30;;;;;;;-8.90;68.45;96193.34;5022987;28;20048;-84
2024/01/23 00:48:55;;;;;;;160.52;53.85;;;;;;;-7.93;68.78;96356.53;5041907;28;20044;-84
2024/01/23 00:51:21;;;;;;;147.82;46.40;;;;;;;-8.43;68.34;96276.75;5060869;28;20521;-79
2024/01/23 00:53:47;;;;;;;137.30;45.03;;;;;;;-7.95;68.59;96355.88;5028265;28;20110;-80
2024/01/23 00:56:12;;;;;;;140.00;47.40;;;;;;;-8.15;68.58;96347.25;5034617;28;20574;-81
2024/01/23 00:58:38;;;;;;;141.23;49.70;;;;;;;-8.10;68.80;96349.44;5053363;28;20094;-81
2024/01/23 01:01:03;;;;;;;150.23;48.97;;;;;;;-8.20;68.49;96339.09;5006068;28;20131;-81
2024/01/23 01:03:29;;;;;;;138.02;46.28;;;;;;;-8.89;68.57;96246.38;5038268;28;20055;-80
2024/01/23 01:05:55;;;;;;;145.07;46.90;;;;;;;-8.66;69.64;96317.28;5048537;28;20041;-80
2024/01/23 01:08:20;;;;;;;144.02;48.63;;;;;;;-8.88;68.97;96266.00;5018659;28;20524;-80
2024/01/23 01:10:47;;;;;;;151.75;47.55;;;;;;;-8.44;69.84;96320.63;5038927;23;20111;-81
2024/01/23 01:13:12;;;;;;;146.13;48.20;;;;;;;-9.00;69.92;96254.19;5001189;28;20436;-81
2024/01/23 01:15:38;;;;;;;164.48;49.13;;;;;;;-9.07;69.80;96219.63;5015726;28;20154;-81
2024/01/23 01:18:06;;;;;;;173.27;50.22;;;;;;;-8.35;70.71;96336.09;5030220;28;20110;-81
2024/01/23 01:20:32;;;;;;;164.77;50.88;;;;;;;-8.73;69.85;96259.59;5021386;28;20041;-81
2024/01/23 01:22:57;;;;;;;167.60;51.42;;;;;;;-8.45;70.05;96299.22;5046400;28;20047;-81
2024/01/23 01:25:24;;;;;;;172.05;50.13;;;;;;;-9.79;70.33;96104.09;5015283;28;20072;-80
2024/01/23 01:27:50;;;;;;;176.20;52.17;;;;;;;-9.22;70.54;96210.63;5016789;28;20040;-81
2024/01/23 01:30:16;;;;;;;168.60;51.65;;;;;;;-9.12;70.65;96211.50;5017233;28;20485;-81
2024/01/23 01:32:41;;;;;;;172.65;49.50;;;;;;;-9.15;71.20;96199.72;5014181;28;20144;-82
2024/01/23 01:35:07;;;;;;;157.70;50.47;;;;;;;-8.64;71.48;96283.72;5029966;28;20128;-81
2024/01/23 01:37:33;;;;;;;181.13;54.55;;;;;;;-8.89;71.90;96251.53;5016428;28;20039;-82
2024/01/23 01:39:58;;;;;;;190.60;55.10;;;;;;;-9.00;71.82;96246.47;5017221;28;20064;-81
2024/01/23 01:42:24;;;;;;;172.45;50.85;;;;;;;-8.56;72.85;96312.19;5033704;28;20048;-81
2024/01/23 01:44:50;;;;;;;161.50;53.10;;;;;;;-9.19;72.01;96207.81;5033608;28;20037;-81
2024/01/23 01:47:16;;;;;;;176.77;50.85;;;;;;;-8.85;72.29;96244.38;5034542;28;20036;-81
2024/01/23 01:49:42;;;;;;;163.77;49.03;;;;;;;-8.68;72.51;96278.00;5047657;28;20502;-81
2024/01/23 01:52:08;;;;;;;170.45;50.28;;;;;;;-8.97;72.55;96241.06;5036839;28;20037;-81
2024/01/23 01:54:33;;;;;;;184.63;51.67;;;;;;;-8.63;72.62;96275.88;5016863;28;20037;-81
2024/01/23 01:57:00;;;;;;;186.05;53.50;;;;;;;-8.52;73.01;96294.72;5039048;28;20091;-81
2024/01/23 01:59:26;;;;;;;173.63;49.63;;;;;;;-8.47;72.87;96308.03;5020010;28;20128;-81
2024/01/23 02:01:52;;;;;;;166.43;54.72;;;;;;;-8.96;73.04;96227.28;5008681;28;20045;-85
2024/01/23 02:04:17;;;;;;;160.85;51.05;;;;;;;-8.77;73.36;96268.47;5014719;28;20132;-85
2024/01/23 02:06:43;;;;;;;147.73;48.15;;;;;;;-8.64;74.13;96289.69;5019663;28;20072;-86
2024/01/23 02:09:09;;;;;;;182.20;55.65;;;;;;;-8.88;73.86;96248.00;5051106;28;20490;-85
2024/01/23 02:11:34;;;;;;;155.30;53.27;;;;;;;-8.67;73.70;96287.34;5021810;28;20313;-85
2024/01/23 02:14:00;;;;;;;147.48;53.30;;;;;;;-8.63;74.46;96285.34;5055908;28;20187;-85
2024/01/23 02:16:25;;;;;;;168.90;52.10;;;;;;;-8.82;74.24;96260.34;5039381;28;20045;-85
2024/01/23 02:18:51;;;;;;;150.93;48.08;;;;;;;-9.13;73.78;96194.44;5022317;28;20049;-86
2024/01/23 02:21:16;;;;;;;167.02;50.35;;;;;;;-9.05;73.89;96195.44;5022527;28;20425;-86
2024/01/23 02:23:42;;;;;;;160.68;47.33;;;;;;;-8.76;73.62;96243.59;5055410;28;20037;-85
2024/01/23 02:26:08;;;;;;;146.10;46.70;;;;;;;-9.44;73.49;96127.66;5039023;28;20421;-85
2024/01/23 02:28:33;;;;;;;156.93;48.10;;;;;;;-8.59;72.77;96250.69;5041977;28;20068;-86
2024/01/23 02:30:59;;;;;;;159.43;50.10;;;;;;;-9.30;73.30;96123.09;5050821;28;20139;-86
2024/01/23 02:33:24;;;;;;;147.55;46.90;;;;;;;-8.96;72.92;96191.28;5038948;28;20051;-86
2024/01/23 02:35:50;;;;;;;126.80;46.63;;;;;;;-8.64;72.04;96240.00;5056197;28;20481;-83
2024/01/23 02:38:15;;;;;;;157.35;50.10;;;;;;;-8.45;72.61;96270.09;5028032;28;20079;-82
2024/01/23 02:40:41;;;;;;;142.57;46.00;;;;;;;-8.95;72.54;96154.38;5030321;28;20033;-82
2024/01/23 02:43:07;;;;;;;136.37;46.63;;;;;;;-9.18;72.36;96120.34;5037560;28;20041;-82
2024/01/23 02:45:32;;;;;;;143.50;49.47;;;;;;;-9.15;71.69;96134.66;5046279;28;20432;-82
2024/01/23 02:47:58;;;;;;;153.32;47.05;;;;;;;-8.89;71.69;96163.31;5032625;28;20033;-83
2024/01/23 02:50:23;;;;;;;144.20;47.60;;;;;;;-8.98;72.27;96146.91;5036412;28;20613;-82
2024/01/23 02:52:49;;;;;;;155.90;46.00;;;;;;;-8.89;71.99;96176.97;5053429;28;20509;-82
2024/01/23 02:55:15;;;;;;;154.57;48.10;;;;;;;-8.39;71.41;96236.16;5053922;28;20041;-82
2024/01/23 02:57:41;;;;;;;138.90;46.97;;;;;;;-8.53;72.04;96219.31;5037442;28;20029;-82
2024/01/23 03:00:08;;;;;;;135.95;47.10;;;;;;;-8.81;71.54;96161.72;5053676;28;20067;-83
2024/01/23 03:02:33;;;;;;;133.82;46.58;;;;;;;-8.87;71.39;96156.28;5037529;28;20064;-82
2024/01/23 03:04:59;;;;;;;141.95;45.63;;;;;;;-8.42;71.17;96224.38;5041491;28;20064;-82
2024/01/23 03:07:24;;;;;;;148.80;45.83;;;;;;;-8.36;71.52;96213.53;5048099;28;20584;-82
2024/01/23 03:09:50;;;;;;;152.27;49.97;;;;;;;-10.56;71.27;95883.09;5036689;28;20542;-82
2024/01/23 03:12:16;;;;;;;166.75;48.55;;;;;;;-8.45;71.03;96218.66;5021512;28;20052;-85
2024/01/23 03:14:45;;;;;;;156.68;49.20;;;;;;;-8.46;71.51;96210.13;5023250;28;20528;-86
2024/01/23 03:17:11;;;;;;;165.52;48.47;;;;;;;-8.54;71.57;96193.75;5042763;28;20036;-85
2024/01/23 03:19:37;;;;;;;168.43;53.40;;;;;;;-9.06;71.81;96111.56;5025863;28;20035;-86
2024/01/23 03:22:03;;;;;;;167.20;51.67;;;;;;;-8.96;71.41;96129.59;5057124;28;20083;-86
2024/01/23 03:24:29;;;;;;;186.15;49.95;;;;;;;-8.43;71.70;96209.06;5042318;28;20041;-85
2024/01/23 03:26:55;;;;;;;188.30;51.50;;;;;;;-9.16;72.06;96086.81;5022963;28;20043;-86
2024/01/23 03:29:21;;;;;;;182.93;54.22;;;;;;;-8.86;72.09;96130.47;5027623;28;20028;-85
2024/01/23 03:31:46;;;;;;;174.60;52.55;;;;;;;-8.60;71.08;96164.19;5042790;28;20508;-86
2024/01/23 03:34:12;;;;;;;205.33;56.10;;;;;;;-8.64;71.80;96173.94;5042241;28;20128;-86
2024/01/23 03:36:37;;;;;;;176.48;55.42;;;;;;;-8.48;71.55;96185.50;5051116;28;20036;-85
2024/01/23 03:39:03;;;;;;;191.15;54.13;;;;;;;-8.68;72.34;96161.47;5022760;28;20048;-86
2024/01/23 03:41:29;;;;;;;201.18;54.92;;;;;;;-9.08;72.47;96094.69;5027256;28;20033;-85
2024/01/23 03:43:55;;;;;;;193.90;54.38;;;;;;;-8.61;72.36;96154.84;5031316;28;20044;-86
2024/01/23 03:46:21;;;;;;;181.30;53.00;;;;;;;-8.62;72.97;96161.75;5053102;28;20068;-86
2024/01/23 03:48:46;;;;;;;167.27;48.83;;;;;;;-8.44;72.04;96185.09;5027506;28;20098;-86
2024/01/23 03:51:12;;;;;;;179.18;50.63;;;;;;;-9.11;72.63;96107.78;5044109;28;20043;-86
2024/01/23 03:53:37;;;;;;;151.10;46.35;;;;;;;-8.61;72.26;96178.00;5043592;28;20538;-85
2024/01/23 03:56:03;;;;;;;148.45;45.63;;;;;;;-8.97;73.60;96104.84;5061031;28;20071;-86
2024/01/23 03:58:29;;;;;;;188.20;49.30;;;;;;;-9.85;72.76;95968.56;5042452;28;20050;-86
2024/01/23 04:00:57;;;;;;;143.90;47.75;;;;;;;-8.57;73.34;96165.69;5023081;28;20041;-86
2024/01/23 04:03:23;;;;;;;161.85;50.33;;;;;;;-9.04;72.57;96101.16;5056330;28;20607;-86
2024/01/23 04:05:48;;;;;;;179.07;49.10;;;;;;;-8.96;72.84;96127.03;5019372;28;20041;-86
2024/01/23 04:08:14;;;;;;;159.10;46.55;;;;;;;-9.37;73.55;96061.97;5024215;28;20134;-84
2024/01/23 04:10:39;;;;;;;156.90;49.47;;;;;;;-9.44;73.36;96062.63;5029693;28;20059;-86
2024/01/23 04:13:05;;;;;;;160.32;47.05;;;;;;;-8.85;73.85;96160.38;5033503;28;20040;-85
2024/01/23 04:15:30;;;;;;;156.27;49.30;;;;;;;-9.52;73.35;96045.28;5039750;28;20045;-86
2024/01/23 04:17:56;;;;;;;145.95;44.95;;;;;;;-9.32;73.86;96079.59;5024368;28;20505;-86
2024/01/23 04:20:22;;;;;;;145.07;45.72;;;;;;;-9.02;73.92;96135.28;5029754;28;20462;-86
2024/01/23 04:22:47;;;;;;;177.50;49.28;;;;;;;-8.78;73.24;96164.03;5043862;23;20527;-81
2024/01/23 04:25:13;;;;;;;152.95;45.97;;;;;;;-9.15;73.54;96096.13;5028023;28;20041;-80
2024/01/23 04:27:38;;;;;;;154.38;46.25;;;;;;;-8.75;74.00;96160.38;4999595;28;20045;-80
2024/01/23 04:30:04;;;;;;;179.82;49.97;;;;;;;-9.12;73.50;96090.72;5008443;28;20068;-80
2024/01/23 04:32:30;;;;;;;190.45;49.17;;;;;;;-9.34;73.67;96085.78;5026811;28;20057;-81
2024/01/23 04:34:55;;;;;;;183.65;50.38;;;;;;;-9.32;74.02;96071.06;5011060;28;20561;-80
2024/01/23 04:37:22;;;;;;;173.27;48.15;;;;;;;-8.76;74.20;96151.03;5024450;28;20053;-81
2024/01/23 04:39:48;;;;;;;151.13;47.08;;;;;;;-9.15;73.39;96083.28;5029297;28;20041;-80
2024/01/23 04:42:14;;;;;;;178.27;49.92;;;;;;;-8.88;73.78;96152.09;5013005;28;20547;-80
2024/01/23 04:44:39;;;;;;;165.43;47.03;;;;;;;-8.85;73.91;96124.38;5022036;28;20049;-80
2024/01/23 04:47:05;;;;;;;197.55;53.15;;;;;;;-8.73;74.22;96149.03;4999412;28;20060;-80
2024/01/23 04:49:30;;;;;;;184.18;48.40;;;;;;;-9.49;74.64;96052.75;5025010;28;20032;-80
2024/01/23 04:51:56;;;;;;;177.80;46.58;;;;;;;-9.26;74.96;96093.66;5018838;28;20046;-85
2024/01/23 04:54:22;;;;;;;151.87;48.57;;;;;;;-10.14;74.98;95955.59;5012136;28;20045;-85
2024/01/23 04:56:47;;;;;;;174.30;50.40;;;;;;;-9.31;74.35;96082.97;5011951;28;20072;-85
2024/01/23 04:59:13;;;;;;;166.57;48.95;;;;;;;-8.92;75.02;96137.88;5017513;28;20033;-85
2024/01/23 05:01:38;;;;;;;165.10;49.10;;;;;;;-8.90;74.51;96175.34;5038681;28;20103;-84
2024/01/23 05:04:04;;;;;;;172.27;46.80;;;;;;;-8.93;75.75;96139.63;5023388;28;20036;-85
2024/01/23 05:06:30;;;;;;;158.57;46.55;;;;;;;-8.90;74.79;96154.78;5022743;28;20064;-85
2024/01/23 05:08:55;;;;;;;161.75;44.97;;;;;;;-9.71;75.99;96046.97;5003780;28;20041;-85
2024/01/23 05:11:21;;;;;;;156.90;44.17;;;;;;;-8.93;76.31;96155.06;5008487;28;20060;-84
2024/01/23 05:13:47;;;;;;;166.68;48.05;;;;;;;-9.00;75.72;96152.16;5041984;28;20394;-85
2024/01/23 05:16:12;;;;;;;175.52;47.45;;;;;;;-9.91;75.52;95998.13;5003224;28;20429;-83
2024/01/23 05:18:38;;;;;;;156.50;47.60;;;;;;;-8.98;75.38;96152.84;5022550;28;20052;-85
2024/01/23 05:21:04;;;;;;;192.98;53.65;;;;;;;-9.32;75.80;96077.03;5030561;28;20110;-84
2024/01/23 05:23:29;;;;;;;181.90;48.40;;;;;;;-9.13;76.70;96118.19;5029871;28;20445;-84
2024/01/23 05:25:55;;;;;;;175.83;48.50;;;;;;;-9.58;76.17;96029.59;5024769;28;20652;-84
2024/01/23 05:28:20;;;;;;;209.25;49.05;;;;;;;-9.32;77.36;96076.22;5009817;28;20041;-83
2024/01/23 05:35:55;;;;;;;165.98;44.40;;;;;;;-9.57;76.77;96002.97;5113460;27;20480;-83
2024/01/23 05:38:20;;;;;;;177.50;47.05;;;;;;;-8.92;76.45;96105.25;5059430;28;20226;-87
2024/01/23 05:40:46;;;;;;;159.55;47.22;;;;;;;-8.91;76.39;96091.47;5090411;27;20444;-84
2024/01/23 05:43:12;;;;;;;157.85;47.15;;;;;;;-8.63;76.26;96131.88;5076858;27;20043;-88
2024/01/23 05:45:37;;;;;;;168.57;47.88;;;;;;;-11.38;75.96;95680.72;5085658;27;20073;-87
2024/01/23 05:48:04;;;;;;;180.13;46.30;;;;;;;-9.46;76.79;96019.09;5093671;22;20054;-89
2024/01/23 05:50:29;;;;;;;193.45;52.38;;;;;;;-8.81;76.06;96100.00;5057411;28;20225;-88
2024/01/23 05:52:55;;;;;;;183.43;50.90;;;;;;;-11.15;75.67;95709.53;5077320;28;20078;-89
2024/01/23 05:55:21;;;;;;;179.63;47.55;;;;;;;-9.73;75.98;95913.63;5070898;28;20128;-89
2024/01/23 05:57:47;;;;;;;207.70;52.70;;;;;;;-8.91;76.01;96049.50;5078231;28;20039;-89
2024/01/23 06:00:13;;;;;;;178.70;45.70;;;;;;;-9.86;76.14;95902.78;5080295;28;20066;-89
2024/01/23 06:02:42;;;;;;;166.97;50.03;;;;;;;-8.90;75.78;96051.97;5070549;28;20086;-89
2024/01/23 06:05:08;;;;;;;198.37;50.90;;;;;;;-12.13;74.84;95542.09;5074733;28;20040;-90
2024/01/23 06:07:38;;;;;;;203.82;53.63;;;;;;;-13.02;75.33;95382.50;5067246;28;20054;-91
2024/01/23 06:10:05;;;;;;;194.18;52.15;;;;;;;-11.64;75.38;95605.28;5073693;28;20095;-92
2024/01/23 06:12:30;;;;;;;173.27;49.27;;;;;;;-11.58;75.64;95624.44;5067329;28;20055;-90
2024/01/23 06:14:56;;;;;;;188.35;49.35;;;;;;;-9.77;76.38;95943.06;5083854;28;20036;-89
2024/01/23 06:17:21;;;;;;;198.10;52.67;;;;;;;-11.27;75.83;95714.84;5070268;28;20055;-89
2024/01/23 06:19:47;;;;;;;191.75;55.20;;;;;;;-12.25;75.89;95592.47;5068183;28;20127;-88
2024/01/23 06:22:13;;;;;;;187.87;53.17;;;;;;;-12.27;76.35;95576.44;5074946;28;20057;-90
2024/01/23 06:24:39;;;;;;;190.40;52.00;;;;;;;-8.73;76.25;96123.31;5072407;28;20066;-88
2024/01/23 06:27:05;;;;;;;183.52;52.28;;;;;;;-9.14;76.78;96075.44;5086369;23;20407;-92
2024/01/23 06:29:31;;;;;;;183.65;52.30;;;;;;;-9.37;77.44;96071.44;5059304;28;20050;-93
2024/01/23 06:31:59;;;;;;;185.70;55.17;;;;;;;-10.06;76.72;95990.88;5079479;28;20070;-93
2024/01/23 06:34:26;;;;;;;190.00;56.28;;;;;;;-10.31;75.42;96020.34;5061967;28;20037;-90
2024/01/23 06:36:54;;;;;;;193.60;55.63;;;;;;;-11.08;75.49;95895.06;5077131;28;20035;-92
2024/01/23 06:39:20;;;;;;;172.27;50.33;;;;;;;-9.55;75.41;96171.41;5093183;28;20055;-91
2024/01/23 06:41:48;;;;;;;165.70;50.87;;;;;;;-10.04;73.94;96091.63;5067175;28;20052;-92
2024/01/23 06:44:14;;;;;;;149.30;50.78;;;;;;;-11.35;73.79;95905.75;5059400;28;20040;-91
2024/01/23 06:46:39;;;;;;;145.95;49.70;;;;;;;-12.01;72.87;95794.25;5093327;28;20038;-91
2024/01/23 06:49:05;;;;;;;174.20;51.97;;;;;;;-9.68;73.42;96175.06;5073384;28;20040;-91
2024/01/23 06:51:30;;;;;;;174.83;54.00;;;;;;;-11.58;72.67;95921.28;5065716;28;20040;-92
2024/01/23 06:53:56;;;;;;;169.53;50.63;;;;;;;-11.64;72.62;95847.56;5056299;28;20123;-92
2024/01/23 06:56:28;;;;;;;157.13;52.63;;;;;;;-11.20;72.93;95905.47;5074722;28;20036;-94
2024/01/23 06:58:54;;;;;;;175.90;55.90;;;;;;;-10.44;73.22;96020.53;5059187;28;20116;-92
2024/01/23 07:01:20;;;;;;;164.63;55.07;;;;;;;-10.10;72.29;96075.00;5055241;28;20090;-91
2024/01/23 07:03:45;;;;;;;171.33;52.60;;;;;;;-11.97;72.46;95770.03;5078155;28;20028;-92
2024/01/23 07:06:11;;;;;;;174.90;52.07;;;;;;;-11.80;72.14;95753.34;5064204;28;20313;-92
2024/01/23 07:08:37;;;;;;;165.30;56.17;;;;;;;-14.34;71.60;95338.78;5086525;28;20120;-93
2024/01/23 07:11:03;;;;;;;161.60;53.22;;;;;;;-10.73;71.78;95870.84;5087042;28;20113;-88
2024/01/23 07:16:03;;;;;;;181.55;52.78;;;;;;;-8.86;70.88;96127.06;5051909;28;20060;-84
2024/01/23 07:18:30;;;;;;;169.63;55.83;;;;;;;-8.95;71.66;96091.88;5005199;28;20052;-84
2024/01/23 07:20:55;;;;;;;152.57;53.27;;;;;;;-8.86;72.19;96089.31;5012584;28;20086;-83
2024/01/23 07:23:21;;;;;;;176.73;53.20;;;;;;;-8.73;72.80;96091.63;4985748;28;20154;-84
2024/01/23 07:25:47;;;;;;;177.07;55.23;;;;;;;-8.61;73.18;96106.00;4992187;28;21026;-83
2024/01/23 07:28:12;;;;;;;167.83;54.33;;;;;;;-8.50;73.27;96157.31;5004314;28;20144;-84
2024/01/23 07:30:38;;;;;;;174.00;54.85;;;;;;;-8.76;72.56;96049.00;5012070;28;20068;-84
2024/01/23 07:33:03;;;;;;;179.70;56.80;;;;;;;-8.16;72.38;96144.84;5001948;28;20139;-84
2024/01/23 07:35:29;;;;;;;164.63;55.65;;;;;;;-8.38;72.68;96103.97;5025793;28;20131;-84
2024/01/23 07:37:54;;;;;;;177.77;59.13;;;;;;;-8.20;72.41;96115.22;5027554;28;20071;-83
2024/01/23 07:40:20;;;;;;;186.18;61.67;;;;;;;-8.64;72.50;96055.66;5028272;28;20079;-83
2024/01/23 07:42:45;;;;;;;210.10;70.88;;;;;;;-8.52;72.42;96146.34;5028743;28;20040;-83
2024/01/23 07:45:11;;;;;;;221.00;69.20;;;;;;;-8.89;72.63;96057.91;5010291;28;21642;-83
2024/01/23 07:47:37;;;;;;;229.65;69.68;;;;;;;-8.12;72.05;96163.44;5006257;28;20045;-83
2024/01/23 07:50:03;;;;;;;207.73;72.70;;;;;;;-8.55;71.67;96086.66;5029480;28;20135;-83
2024/01/23 07:52:31;;;;;;;214.27;73.10;;;;;;;-8.44;71.53;96131.06;5023590;28;20117;-84
2024/01/23 07:54:57;;;;;;;212.15;72.65;;;;;;;-8.64;72.48;96080.56;5022145;28;20049;-83
2024/01/23 07:57:27;;;;;;;230.73;71.35;;;;;;;-8.14;71.04;96160.16;5024773;28;20634;-81
2024/01/23 07:59:52;;;;;;;210.73;70.38;;;;;;;-8.51;71.80;96135.13;5022791;28;20048;-83
2024/01/23 08:02:18;;;;;;;210.43;66.03;;;;;;;-8.57;71.46;96094.50;5023444;28;20055;-83
2024/01/23 08:04:43;;;;;;;215.70;69.85;;;;;;;-8.10;72.66;96146.91;5019605;28;20032;-83
2024/01/23 08:07:09;;;;;;;213.50;68.78;;;;;;;-8.16;71.24;96131.22;5038210;28;20064;-81
2024/01/23 08:09:35;;;;;;;220.65;72.78;;;;;;;-8.56;71.75;96061.88;5033510;28;20040;-80
2024/01/23 08:12:01;;;;;;;225.70;69.97;;;;;;;-8.11;71.55;96119.53;5014996;28;20121;-82
2024/01/23 08:14:27;;;;;;;194.43;67.38;;;;;;;-8.01;70.82;96122.13;4988924;28;20061;-81
2024/01/23 08:16:53;;;;;;;227.05;74.57;;;;;;;-8.39;71.61;96092.09;5004648;28;20083;-82
2024/01/23 08:19:18;;;;;;;217.20;73.38;;;;;;;-7.71;72.19;96159.78;5006221;28;20732;-83
2024/01/23 08:21:45;;;;;;;207.95;70.93;;;;;;;-7.81;71.29;96127.13;5021274;28;20514;-83
2024/01/23 08:24:11;;;;;;;224.13;73.95;;;;;;;-7.76;72.40;96162.75;4992679;28;20450;-85
2024/01/23 08:26:37;;;;;;;207.20;73.07;;;;;;;-7.76;72.59;96154.19;5000467;28;20172;-83
2024/01/23 08:29:02;;;;;;;237.65;74.72;;;;;;;-7.99;72.09;96102.19;5001717;28;20362;-84
2024/01/23 08:31:29;;;;;;;209.80;72.05;;;;;;;-7.56;71.30;96145.53;5000249;28;20472;-83
2024/01/23 08:33:55;;;;;;;198.52;72.88;;;;;;;-7.69;71.71;96108.91;5006107;28;20154;-84
2024/01/23 08:36:20;;;;;;;210.15;71.15;;;;;;;-7.62;71.10;96109.97;5006250;28;20138;-84
2024/01/23 08:38:46;;;;;;;209.43;72.20;;;;;;;-7.33;71.75;96140.84;5003421;28;20071;-84
2024/01/23 08:41:12;;;;;;;205.13;70.10;;;;;;;-7.90;72.07;96052.44;5021722;28;20074;-84
2024/01/23 08:43:37;;;;;;;188.73;69.25;;;;;;;-7.28;71.94;96133.50;5007481;28;20049;-84
2024/01/23 08:46:03;;;;;;;189.57;64.93;;;;;;;-7.48;71.28;96107.00;5000846;28;20055;-85
2024/01/23 08:48:29;;;;;;;216.48;70.70;;;;;;;-7.06;71.06;96157.16;5005466;28;20069;-82
2024/01/23 08:51:10;;;;;;;218.10;72.13;;;;;;;-7.63;71.38;96052.53;5057495;28;20118;-84
2024/01/23 08:53:36;;;;;;;;;;;;;;;-6.89;70.80;96144.47;5050504;28;20048;-83
2024/01/23 08:56:01;;;;;;;213.45;71.68;;;;;;;-7.95;70.83;95954.22;5049575;28;20000;-84
2024/01/23 08:58:27;;;;;;;211.55;72.57;;;;;;;-6.78;71.40;96145.09;5032828;28;20238;-85
2024/01/23 09:00:52;;;;;;;216.27;73.63;;;;;;;-7.64;71.46;95988.28;5006832;28;20346;-84
2024/01/23 09:03:18;;;;;;;228.70;74.78;;;;;;;-6.84;71.02;96106.16;4987606;28;20132;-84
2024/01/23 09:05:43;;;;;;;235.25;78.93;;;;;;;-6.46;70.97;96138.69;4992422;28;20437;-84
2024/01/23 09:08:09;;;;;;;219.02;74.20;;;;;;;-7.34;70.23;95979.44;5014999;28;20683;-84
2024/01/23 09:10:35;;;;;;;221.85;73.22;;;;;;;-6.68;70.36;96085.72;5009487;28;20368;-84
2024/01/23 09:13:00;;;;;;;212.45;74.70;;;;;;;-7.16;70.26;96009.44;5001511;28;20440;-85
2024/01/23 09:15:26;;;;;;;217.65;79.63;;;;;;;-6.38;70.62;96111.19;5018176;28;20048;-84
2024/01/23 09:17:51;;;;;;;225.57;74.22;;;;;;;-6.67;70.14;96061.53;5024980;28;20071;-84
2024/01/23 09:20:17;;;;;;;200.38;71.10;;;;;;;-6.10;70.34;96117.09;5006981;28;20102;-85
2024/01/23 09:22:43;;;;;;;208.85;71.70;;;;;;;-5.92;70.43;96123.06;5036153;28;20036;-84
2024/01/23 09:25:09;;;;;;;232.68;78.63;;;;;;;-6.19;70.62;96101.69;5006927;28;22131;-85
2024/01/23 09:27:35;;;;;;;233.68;76.20;;;;;;;-6.45;71.03;96097.25;5012217;28;20044;-84
2024/01/23 09:30:00;;;;;;;222.35;73.15;;;;;;;-6.20;71.31;96113.78;5037380;28;20078;-84
2024/01/23 09:32:26;;;;;;;210.93;73.25;;;;;;;-6.56;70.71;96051.00;5065688;22;20609;-83
2024/01/23 09:34:54;;;;;;;238.52;80.40;;;;;;;-6.63;70.72;96013.84;5086285;28;20040;-84
2024/01/23 09:37:19;;;;;;;224.15;71.47;;;;;;;-7.27;70.30;95919.44;5083831;28;20434;-83
2024/01/23 09:39:45;;;;;;;221.30;69.75;;;;;;;-5.90;70.32;96110.81;5064767;28;20048;-85
2024/01/23 09:42:10;;;;;;;246.68;76.15;;;;;;;-5.73;70.43;96124.66;5067010;27;20462;-83
2024/01/23 09:44:37;;;;;;;248.45;77.35;;;;;;;-7.88;70.09;95765.56;5062036;28;20043;-84
2024/01/23 09:47:05;;;;;;;242.57;71.88;;;;;;;-6.16;70.19;96057.47;5072601;28;20089;-83
2024/01/23 09:49:31;;;;;;;229.93;72.00;;;;;;;-7.87;69.87;95720.84;5099512;27;20050;-83
2024/01/23 09:52:00;;;;;;;235.10;73.85;;;;;;;-6.26;68.47;95972.41;5073074;28;20541;-84
2024/01/23 09:54:27;;;;;;;232.73;72.18;;;;;;;-6.98;68.48;95897.78;5051990;28;20423;-84
2024/01/23 09:56:53;;;;;;;233.43;73.38;;;;;;;-7.55;68.72;95787.28;5084355;28;20125;-83
2024/01/23 09:59:18;;;;;;;235.70;70.97;;;;;;;-5.47;68.97;96091.06;5077882;28;20124;-84
2024/01/23 10:01:44;;;;;;;215.30;74.60;;;;;;;-5.45;68.79;96097.69;5081865;28;21454;-83
2024/01/23 10:04:09;;;;;;;217.93;70.50;;;;;;;-7.44;68.68;95753.56;5076470;28;20453;-84
2024/01/23 10:06:35;;;;;;;225.82;71.10;;;;;;;-5.67;68.91;95992.25;5080021;28;20475;-84
2024/01/23 10:09:01;;;;;;;217.43;70.60;;;;;;;-5.29;68.59;96070.31;5076429;28;20495;-84
2024/01/23 10:11:28;;;;;;;229.35;71.30;;;;;;;-5.23;67.79;96077.47;5091054;28;20107;-84
2024/01/23 10:13:56;;;;;;;231.90;73.50;;;;;;;-7.68;68.70;95681.25;5098634;27;21019;-85
2024/01/23 10:16:22;;;;;;;220.02;73.38;;;;;;;-7.53;69.14;95692.63;5103343;28;20123;-83
2024/01/23 10:18:50;;;;;;;215.80;72.40;;;;;;;-5.48;68.71;96012.69;5084556;28;20063;-86
2024/01/23 10:21:22;;;;;;;241.25;75.13;;;;;;;-4.92;68.87;96050.09;5089321;28;20111;-86
2024/01/23 10:23:49;;;;;;;212.30;73.97;;;;;;;-5.00;68.51;95985.41;5082854;28;20039;-85
2024/01/23 10:26:15;;;;;;;230.45;75.03;;;;;;;-5.48;70.21;95824.00;5084317;28;20040;-85
2024/01/23 10:28:44;;;;;;;227.82;78.20;;;;;;;-3.84;69.91;95911.78;5120358;22;20055;-85
2024/01/23 10:31:10;;;;;;;238.80;75.47;;;;;;;-2.14;68.48;95995.69;5075103;28;20101;-85
2024/01/23 10:33:37;;;;;;;215.10;77.15;;;;;;;-0.86;65.02;95981.47;5065737;28;20044;-85
2024/01/23 10:36:10;;;;;;;228.80;75.32;;;;;;;0.64;60.10;96030.78;5071555;28;20878;-84
2024/01/23 10:38:36;;;;;;;221.43;75.47;;;;;;;1.76;56.48;96018.19;5058535;27;20047;-83
2024/01/23 10:41:04;;;;;;;204.70;74.88;;;;;;;2.91;53.80;96017.00;5077452;27;20524;-82
2024/01/23 10:43:30;;;;;;;212.75;75.35;;;;;;;3.43;49.73;95959.13;5056236;28;20047;-83
2024/01/23 10:45:59;;;;;;;202.55;73.57;;;;;;;4.39;46.47;96000.09;5035898;28;20040;-83
2024/01/23 10:48:27;;;;;;;202.00;75.85;;;;;;;4.85;44.82;95990.00;5040357;28;20101;-83
2024/01/23 10:50:54;;;;;;;208.13;80.05;;;;;;;5.29;44.83;95941.56;5037140;27;20047;-83
2024/01/23 10:53:22;;;;;;;228.55;81.90;;;;;;;6.25;43.95;96008.31;5071110;28;20044;-82
2024/01/23 10:55:47;;;;;;;214.20;82.93;;;;;;;6.46;42.84;95995.41;5068089;27;20432;-82
2024/01/23 10:58:27;;;;;;;220.30;79.38;;;;;;;6.39;40.73;95964.91;5067771;27;20039;-83
2024/01/23 11:00:53;;;;;;;205.57;79.38;;;;;;;6.94;40.06;96002.31;5054389;28;20044;-83
2024/01/23 11:03:18;;;;;;;199.95;80.28;;;;;;;6.76;39.28;95970.78;5054994;28;20063;-83
2024/01/23 11:05:54;;;;;;;201.15;81.40;;;;;;;6.84;39.53;95963.31;5067495;27;20047;-83
2024/01/23 11:08:26;;;;;;;209.23;84.32;;;;;;;6.70;40.09;95969.06;5050086;27;20232;-83
2024/01/23 11:10:52;;;;;;;201.23;82.88;;;;;;;6.34;40.08;95972.69;5067048;27;20039;-83